Home > Products > Valid Products > TAF

000
FTUS43 KEAX 221900 AAA
TAFSTJ
TAF AMD
KSTJ 221943Z 2220/2318 23006KT P6SM OVC100
     FM222300 14005KT P6SM BKN070
     FM231500 15007KT P6SM VCSH OVC035=



000
FTUS43 KEAX 221900 AAA
TAFMKC
TAF AMD
KMKC 221940Z 2220/2318 15007KT P6SM OVC120
     FM222300 10005KT P6SM BKN070
     FM231500 14007KT P6SM VCSH OVC035=



000
FTUS43 KEAX 221900 AAA
TAFMKC
TAF AMD
KMKC 221940Z 2220/2318 15007KT P6SM OVC120
     FM222300 10005KT P6SM BKN070
     FM231500 14007KT P6SM VCSH OVC035=



000
FTUS43 KEAX 221900 AAA
TAFMCI
TAF AMD
KMCI 221939Z 2220/2318 16008KT P6SM OVC120
     FM222300 11007KT P6SM BKN070
     FM231500 14009KT P6SM VCSH OVC035=



000
FTUS43 KEAX 221900 AAA
TAFMCI
TAF AMD
KMCI 221939Z 2220/2318 16008KT P6SM OVC120
     FM222300 11007KT P6SM BKN070
     FM231500 14009KT P6SM VCSH OVC035=



000
FTUS43 KEAX 221700
TAFSTJ
TAF
KSTJ 221720Z 2218/2318 21007KT P6SM BKN100
     FM222000 25007KT P6SM VCSH OVC080
     FM222300 13007KT P6SM BKN070
     FM231500 14008KT P6SM VCSH OVC035=



000
FTUS43 KEAX 221700
TAFMKC
TAF
KMKC 221720Z 2218/2318 21006KT P6SM BKN100
     FM222000 16005KT P6SM VCSH OVC080
     FM222300 10006KT P6SM BKN070
     FM231500 14007KT P6SM VCSH OVC035=



000
FTUS43 KEAX 221700
TAFMKC
TAF
KMKC 221720Z 2218/2318 21006KT P6SM BKN100
     FM222000 16005KT P6SM VCSH OVC080
     FM222300 10006KT P6SM BKN070
     FM231500 14007KT P6SM VCSH OVC035=



000
FTUS43 KEAX 221700
TAFSTJ
TAF
KSTJ 221720Z 2218/2318 21007KT P6SM BKN100
     FM222000 25007KT P6SM VCSH OVC080
     FM222300 13007KT P6SM BKN070
     FM231500 14008KT P6SM VCSH OVC035=



000
FTUS43 KEAX 221700
TAFMCI
TAF
KMCI 221720Z 2218/2318 21008KT P6SM BKN100
     FM222000 16005KT P6SM VCSH OVC080
     FM222300 11007KT P6SM BKN070
     FM231500 15009KT P6SM VCSH OVC035=



000
FTUS43 KEAX 221700
TAFMCI
TAF
KMCI 221720Z 2218/2318 21008KT P6SM BKN100
     FM222000 16005KT P6SM VCSH OVC080
     FM222300 11007KT P6SM BKN070
     FM231500 15009KT P6SM VCSH OVC035=



000
FTUS43 KEAX 221100
TAFMKC
TAF
KMKC 221120Z 2212/2312 22005KT P6SM BKN150
     FM222100 16006KT P6SM BKN080
     FM230600 11006KT P6SM VCSH BKN040=



000
FTUS43 KEAX 221100
TAFSTJ
TAF
KSTJ 221120Z 2212/2312 22005KT P6SM BKN150
     FM222100 16006KT P6SM BKN080
     FM230600 12006KT P6SM VCSH BKN040=



000
FTUS43 KEAX 221100
TAFMCI
TAF
KMCI 221120Z 2212/2312 22005KT P6SM BKN150
     FM222100 16006KT P6SM BKN080
     FM230600 12006KT P6SM VCSH BKN040=



000
FTUS43 KEAX 221100
TAFMCI
TAF
KMCI 221120Z 2212/2312 22005KT P6SM BKN150
     FM222100 16006KT P6SM BKN080
     FM230600 12006KT P6SM VCSH BKN040=



000
FTUS43 KEAX 221100
TAFMKC
TAF
KMKC 221120Z 2212/2312 22005KT P6SM BKN150
     FM222100 16006KT P6SM BKN080
     FM230600 11006KT P6SM VCSH BKN040=



000
FTUS43 KEAX 221100
TAFSTJ
TAF
KSTJ 221120Z 2212/2312 22005KT P6SM BKN150
     FM222100 16006KT P6SM BKN080
     FM230600 12006KT P6SM VCSH BKN040=



000
FTUS43 KEAX 220500
TAFSTJ
TAF
KSTJ 220520Z 2206/2306 22004KT P6SM SCT200
     FM222200 16008KT P6SM BKN100=



000
FTUS43 KEAX 220500
TAFMCI
TAF
KMCI 220520Z 2206/2306 22006KT P6SM SCT200
     FM222200 15008KT P6SM BKN100=



000
FTUS43 KEAX 220500
TAFMKC
TAF
KMKC 220520Z 2206/2306 22004KT P6SM SCT200
     FM222200 15007KT P6SM BKN100=



000
FTUS43 KEAX 220500
TAFSTJ
TAF
KSTJ 220520Z 2206/2306 22004KT P6SM SCT200
     FM222200 16008KT P6SM BKN100=



000
FTUS43 KEAX 220500
TAFMCI
TAF
KMCI 220520Z 2206/2306 22006KT P6SM SCT200
     FM222200 15008KT P6SM BKN100=



000
FTUS43 KEAX 220500
TAFMKC
TAF
KMKC 220520Z 2206/2306 22004KT P6SM SCT200
     FM222200 15007KT P6SM BKN100=



000
FTUS43 KEAX 212300
TAFSTJ
TAF
KSTJ 212325Z 2200/2224 22004KT P6SM SCT250=



000
FTUS43 KEAX 212300
TAFMKC
TAF
KMKC 212325Z 2200/2224 22005KT P6SM SCT250=



000
FTUS43 KEAX 212300
TAFMCI
TAF
KMCI 212325Z 2200/2224 22006KT P6SM SCT250=



000
FTUS43 KEAX 212300
TAFMKC
TAF
KMKC 212325Z 2200/2224 22005KT P6SM SCT250=



000
FTUS43 KEAX 212300
TAFMCI
TAF
KMCI 212325Z 2200/2224 22006KT P6SM SCT250=



000
FTUS43 KEAX 212300
TAFSTJ
TAF
KSTJ 212325Z 2200/2224 22004KT P6SM SCT250=



000
FTUS43 KEAX 211700
TAFMKC
TAF
KMKC 211727Z 2118/2218 34006KT P6SM FEW020
     FM220200 VRB03KT P6SM SCT200
     FM221400 25005KT P6SM BKN150=



000
FTUS43 KEAX 211700
TAFSTJ
TAF
KSTJ 211727Z 2118/2218 32007KT P6SM FEW020
     FM220200 VRB03KT P6SM SCT200
     FM221200 VRB04KT P6SM BKN150=



000
FTUS43 KEAX 211700
TAFMCI
TAF
KMCI 211727Z 2118/2218 33008KT P6SM FEW020
     FM220200 VRB05KT P6SM SCT200
     FM221400 22006KT P6SM BKN150=



000
FTUS43 KEAX 211300 AAA
TAFMCI
TAF AMD
KMCI 211305Z 2113/2212 34005KT P6SM SCT006
      TEMPO 2113/2114 BKN006
     FM211400 33008KT P6SM SKC
     FM220200 24005KT P6SM SCT200=



000
FTUS43 KEAX 211300 AAA
TAFSTJ
TAF AMD
KSTJ 211305Z 2113/2212 33007KT P6SM SKC
     FM220200 24005KT P6SM SCT200=



000
FTUS43 KEAX 211300 AAA
TAFMKC
TAF AMD
KMKC 211305Z 2113/2212 33005KT P6SM SCT010
      TEMPO 2113/2114 BKN010
     FM211400 34007KT P6SM SKC
     FM220200 24004KT P6SM SCT200=



000
FTUS43 KEAX 211100
TAFMKC
TAF
KMKC 211120Z 2112/2212 35005KT P6SM SCT007
     FM211300 34007KT P6SM SKC
     FM220200 24004KT P6SM SCT200=



000
FTUS43 KEAX 211100
TAFMCI
TAF
KMCI 211120Z 2112/2212 34005KT P6SM SCT005
     FM211300 33008KT P6SM SKC
     FM220200 24005KT P6SM SCT200=



000
FTUS43 KEAX 211100
TAFSTJ
TAF
KSTJ 211120Z 2112/2212 33007KT P6SM SKC
     FM220200 24005KT P6SM SCT200=



000
FTUS43 KEAX 211100
TAFMCI
TAF
KMCI 211120Z 2112/2212 34005KT P6SM SCT005
     FM211300 33008KT P6SM SKC
     FM220200 24005KT P6SM SCT200=



000
FTUS43 KEAX 211100
TAFMKC
TAF
KMKC 211120Z 2112/2212 35005KT P6SM SCT007
     FM211300 34007KT P6SM SKC
     FM220200 24004KT P6SM SCT200=



000
FTUS43 KEAX 211100
TAFSTJ
TAF
KSTJ 211120Z 2112/2212 33007KT P6SM SKC
     FM220200 24005KT P6SM SCT200=



000
FTUS43 KEAX 210700 AAB
TAFMKC
TAF AMD
KMKC 210748Z 2108/2206 VRB03KT P6SM BKN015
     FM211300 35006KT P6SM SCT040
     FM220100 00000KT P6SM SCT140=



000
FTUS43 KEAX 210700 AAB
TAFSTJ
TAF AMD
KSTJ 210747Z 2108/2206 34004KT P6SM BKN015
     FM210900 VRB02KT 4SM BR SCT015
     FM211300 34007KT P6SM SCT040
     FM220030 00000KT P6SM SCT140=



000
FTUS43 KEAX 210700 AAA
TAFSTJ
TAF AMD
KSTJ 210709Z 2107/2206 34004KT P6SM BKN008
     FM210900 VRB02KT 4SM BR SCT015
     FM211300 34007KT P6SM SCT040
     FM220030 00000KT P6SM SCT140=



000
FTUS43 KEAX 210700 AAA
TAFSTJ
TAF AMD
KSTJ 210709Z 2107/2206 34004KT P6SM BKN008
     FM210900 VRB02KT 4SM BR SCT015
     FM211300 34007KT P6SM SCT040
     FM220030 00000KT P6SM SCT140=



000
FTUS43 KEAX 210700 AAA
TAFMKC
TAF AMD
KMKC 210707Z 2107/2206 VRB03KT P6SM BKN025
     FM211300 35006KT P6SM SCT040
     FM220100 00000KT P6SM SCT140=



000
FTUS43 KEAX 210700 AAA
TAFMCI
TAF AMD
KMCI 210706Z 2107/2206 34005KT P6SM BKN025
      TEMPO 2107/2111 BKN015
     FM211300 35008KT P6SM SCT040
     FM220100 00000KT P6SM SCT140=



000
FTUS43 KEAX 210500
TAFMKC
TAF
KMKC 210520Z 2106/2206 03004KT 6SM -RA BR BKN009 OVC013
     FM210900 VRB02KT 4SM BR SCT009
     FM211430 35006KT P6SM SCT040
     FM220100 00000KT P6SM SCT140=



000
FTUS43 KEAX 210500
TAFMCI
TAF
KMCI 210520Z 2106/2206 02005KT P6SM -DZ BKN006 OVC011
     FM210830 34003KT 3SM BR BKN005
     FM211500 35008KT P6SM SCT040
     FM220100 00000KT P6SM SCT140=



000
FTUS43 KEAX 210500
TAFMCI
TAF
KMCI 210520Z 2106/2206 02005KT P6SM -DZ BKN006 OVC011
     FM210830 34003KT 3SM BR BKN005
     FM211500 35008KT P6SM SCT040
     FM220100 00000KT P6SM SCT140=



000
FTUS43 KEAX 210500
TAFSTJ
TAF
KSTJ 210520Z 2106/2206 34004KT P6SM OVC017
     FM210730 VRB02KT 2SM BR BKN004
     FM211500 34007KT P6SM SCT040
     FM220030 00000KT P6SM SCT140=



000
FTUS43 KEAX 210500
TAFMKC
TAF
KMKC 210520Z 2106/2206 03004KT 6SM -RA BR BKN009 OVC013
     FM210900 VRB02KT 4SM BR SCT009
     FM211430 35006KT P6SM SCT040
     FM220100 00000KT P6SM SCT140=



000
FTUS43 KEAX 210500
TAFSTJ
TAF
KSTJ 210520Z 2106/2206 34004KT P6SM OVC017
     FM210730 VRB02KT 2SM BR BKN004
     FM211500 34007KT P6SM SCT040
     FM220030 00000KT P6SM SCT140=



000
FTUS43 KEAX 210200 AAA
TAFMCI
TAF AMD
KMCI 210230Z 2103/2124 01008KT P6SM SCT011 BKN022 OVC030
      TEMPO 2103/2104 4SM -RA BR BKN006 OVC024
     FM210800 33003KT 5SM BR BKN008
     FM211500 35008KT P6SM SCT040=



000
FTUS43 KEAX 210200 AAA
TAFMCI
TAF AMD
KMCI 210230Z 2103/2124 01008KT P6SM SCT011 BKN022 OVC030
      TEMPO 2103/2104 4SM -RA BR BKN006 OVC024
     FM210800 33003KT 5SM BR BKN008
     FM211500 35008KT P6SM SCT040=



000
FTUS43 KEAX 202300
TAFMCI
TAF
KMCI 202334Z 2100/2124 01008KT P6SM SCT011 BKN022 OVC030
     FM210800 33003KT 5SM BR BKN008
     FM211500 35008KT P6SM SCT040=



000
FTUS43 KEAX 202300
TAFSTJ
TAF
KSTJ 202334Z 2100/2124 02004KT P6SM FEW014 BKN035
     FM210700 VRB02KT 4SM BR BKN007
     FM211500 34007KT P6SM SCT040=



000
FTUS43 KEAX 202300
TAFMKC
TAF
KMKC 202334Z 2100/2124 02006KT P6SM SCT015 BKN024 OVC030
     FM210900 VRB02KT 6SM BR BKN010
     FM211430 35006KT P6SM SCT040=



000
FTUS43 KEAX 201700
TAFMKC
TAF
KMKC 201720Z 2018/2118 03011KT P6SM OVC015
     FM210700 34003KT P6SM OVC025
     FM211400 34006KT P6SM SCT035=



000
FTUS43 KEAX 201700
TAFSTJ
TAF
KSTJ 201720Z 2018/2118 02011KT P6SM OVC015
     FM210700 32003KT P6SM OVC025
     FM211100 33007KT P6SM SCT035=



000
FTUS43 KEAX 201700
TAFSTJ
TAF
KSTJ 201720Z 2018/2118 02011KT P6SM OVC015
     FM210700 32003KT P6SM OVC025
     FM211100 33007KT P6SM SCT035=



000
FTUS43 KEAX 201700
TAFMKC
TAF
KMKC 201720Z 2018/2118 03011KT P6SM OVC015
     FM210700 34003KT P6SM OVC025
     FM211400 34006KT P6SM SCT035=



000
FTUS43 KEAX 201700
TAFMCI
TAF
KMCI 201720Z 2018/2118 02011KT P6SM OVC012
      TEMPO 2018/2021 4SM -DZ BR OVC007
     FM210500 33004KT P6SM OVC012
     FM211100 33006KT P6SM OVC025
     FM211500 34008KT P6SM SCT035=



000
FTUS43 KEAX 201700
TAFMCI
TAF
KMCI 201720Z 2018/2118 02011KT P6SM OVC012
      TEMPO 2018/2021 4SM -DZ BR OVC007
     FM210500 33004KT P6SM OVC012
     FM211100 33006KT P6SM OVC025
     FM211500 34008KT P6SM SCT035=



000
FTUS43 KEAX 201100
TAFMCI
TAF
KMCI 201122Z 2012/2112 04013KT P6SM VCSH OVC012
     FM201400 04012KT P6SM OVC008
     FM202100 03011KT P6SM OVC012
     FM210400 33006KT P6SM BKN040=



000
FTUS43 KEAX 201100
TAFMKC
TAF
KMKC 201122Z 2012/2112 04013KT P6SM VCSH OVC012
     FM201400 04012KT P6SM OVC009
     FM202100 03010KT P6SM OVC015
     FM210400 33004KT P6SM BKN040=



000
FTUS43 KEAX 201100
TAFMCI
TAF
KMCI 201122Z 2012/2112 04013KT P6SM VCSH OVC012
     FM201400 04012KT P6SM OVC008
     FM202100 03011KT P6SM OVC012
     FM210400 33006KT P6SM BKN040=



000
FTUS43 KEAX 201100
TAFSTJ
TAF
KSTJ 201122Z 2012/2112 04011KT P6SM VCSH OVC035
     FM201400 04012KT P6SM OVC015
     FM201600 04011KT P6SM OVC008
     FM202000 03011KT P6SM OVC012
     FM210300 33006KT P6SM BKN040=



000
FTUS43 KEAX 201100
TAFSTJ
TAF
KSTJ 201122Z 2012/2112 04011KT P6SM VCSH OVC035
     FM201400 04012KT P6SM OVC015
     FM201600 04011KT P6SM OVC008
     FM202000 03011KT P6SM OVC012
     FM210300 33006KT P6SM BKN040=



000
FTUS43 KEAX 201100
TAFMKC
TAF
KMKC 201122Z 2012/2112 04013KT P6SM VCSH OVC012
     FM201400 04012KT P6SM OVC009
     FM202100 03010KT P6SM OVC015
     FM210400 33004KT P6SM BKN040=



000
FTUS43 KEAX 200900 AAA
TAFMKC
TAF AMD
KMKC 200930Z 2010/2106 04012KT 3SM RA OVC018
     FM201200 06011KT P6SM VCSH OVC009
     FM201800 02010KT P6SM VCSH OVC030
     FM202300 04008KT P6SM OVC030=



000
FTUS43 KEAX 200900 AAA
TAFMCI
TAF AMD
KMCI 200929Z 2009/2106 06015KT 4SM RA OVC015
     FM201200 06013KT P6SM VCSH OVC007
     FM201800 03011KT P6SM VCSH OVC030
     FM202300 04009KT P6SM OVC030=



000
FTUS43 KEAX 200500
TAFMCI
TAF
KMCI 200520Z 2006/2106 08014KT P6SM VCSH OVC040
     FM200800 06015KT 5SM RA OVC023
     FM201100 06013KT 4SM -RA BR OVC007
     FM201800 03011KT P6SM VCSH OVC030
     FM202300 04009KT P6SM OVC030=



000
FTUS43 KEAX 200500
TAFMKC
TAF
KMKC 200520Z 2006/2106 08013KT P6SM VCSH OVC035
     FM200800 05014KT 5SM RA OVC022
     FM201100 06011KT 4SM -RA BR OVC009
     FM201800 02010KT P6SM VCSH OVC030
     FM202300 04008KT P6SM OVC030=



000
FTUS43 KEAX 200500
TAFSTJ
TAF
KSTJ 200520Z 2006/2106 08011KT P6SM -RA OVC050
     FM200800 05013KT 5SM RA OVC017
     FM201100 06011KT 4SM -RA BR OVC007
     FM201800 03010KT P6SM VCSH OVC030
     FM202300 04007KT P6SM OVC028=



000
FTUS43 KEAX 192300 RRA
TAFMCI
TAF
KMCI 192342Z 2000/2024 06011KT P6SM OVC050
     FM200400 07013KT P6SM -RA OVC035
     FM200800 06013KT 5SM RA OVC019
     FM201100 06011KT 4SM -RA BR OVC007
     FM201800 03011KT P6SM VCSH OVC030=



000
FTUS43 KEAX 192300 RRA
TAFMKC
TAF
KMKC 192342Z 2000/2024 07013KT P6SM OVC050
     FM200400 07013KT P6SM -RA OVC035
     FM200800 05013KT 5SM RA OVC020
     FM201100 06011KT 4SM -RA BR OVC009
     FM201800 02010KT P6SM VCSH OVC030=



000
FTUS43 KEAX 192300 RRA
TAFSTJ
TAF
KSTJ 192342Z 2000/2024 05011KT P6SM OVC050
     FM200400 07012KT P6SM -RA OVC030
     FM200800 05013KT 5SM RA OVC015
     FM201100 06011KT 4SM -RA BR OVC007
     FM201800 03010KT P6SM VCSH OVC030=



    US Dept of Commerce
    National Oceanic and Atmospheric Administration
    National Weather Service
    1325 East West Highway
    Silver Spring, MD 20910
    Page Author: NWS Internet Services Team
Disclaimer
Information Quality
Credits
Glossary
Privacy Policy
Freedom of Information Act (FOIA)
About Us
Career Opportunities